sensor_id;sensor_type;location;lat;lon;timestamp;P1;durP1;ratioP1;P2;durP2;ratioP2
43114;SDS011;28727;50.068;14.452;2023-07-31T00:00:06;670.35;;;611.03;;
43114;SDS011;28727;50.068;14.452;2023-07-31T00:02:42;668.70;;;609.75;;
43114;SDS011;28727;50.068;14.452;2023-07-31T00:05:14;673.42;;;613.95;;
43114;SDS011;28727;50.068;14.452;2023-07-31T00:07:47;670.40;;;611.17;;
43114;SDS011;28727;50.068;14.452;2023-07-31T00:10:19;669.33;;;610.33;;
43114;SDS011;28727;50.068;14.452;2023-07-31T00:12:50;675.60;;;616.10;;
43114;SDS011;28727;50.068;14.452;2023-07-31T00:15:22;671.85;;;612.70;;
43114;SDS011;28727;50.068;14.452;2023-07-31T00:17:54;670.28;;;611.17;;
43114;SDS011;28727;50.068;14.452;2023-07-31T00:20:26;667.53;;;608.72;;
43114;SDS011;28727;50.068;14.452;2023-07-31T00:22:58;670.55;;;611.45;;
43114;SDS011;28727;50.068;14.452;2023-07-31T00:25:30;663.13;;;604.25;;
43114;SDS011;28727;50.068;14.452;2023-07-31T00:28:01;664.92;;;606.20;;
43114;SDS011;28727;50.068;14.452;2023-07-31T00:30:35;666.60;;;607.47;;
43114;SDS011;28727;50.068;14.452;2023-07-31T00:33:10;670.53;;;611.58;;
43114;SDS011;28727;50.068;14.452;2023-07-31T00:35:42;662.67;;;604.03;;
43114;SDS011;28727;50.068;14.452;2023-07-31T00:38:13;668.17;;;609.17;;
43114;SDS011;28727;50.068;14.452;2023-07-31T00:40:45;666.25;;;607.40;;
43114;SDS011;28727;50.068;14.452;2023-07-31T00:43:18;662.72;;;604.00;;
43114;SDS011;28727;50.068;14.452;2023-07-31T00:45:50;664.20;;;605.30;;
43114;SDS011;28727;50.068;14.452;2023-07-31T00:48:22;660.78;;;601.78;;
43114;SDS011;28727;50.068;14.452;2023-07-31T00:50:57;660.83;;;602.22;;
43114;SDS011;28727;50.068;14.452;2023-07-31T00:53:32;666.10;;;606.97;;
43114;SDS011;28727;50.068;14.452;2023-07-31T00:56:05;658.72;;;599.97;;
43114;SDS011;28727;50.068;14.452;2023-07-31T00:58:37;660.60;;;601.88;;
43114;SDS011;28727;50.068;14.452;2023-07-31T01:01:09;657.05;;;598.75;;
43114;SDS011;28727;50.068;14.452;2023-07-31T01:03:46;658.90;;;600.40;;
43114;SDS011;28727;50.068;14.452;2023-07-31T01:06:23;663.80;;;604.97;;
43114;SDS011;28727;50.068;14.452;2023-07-31T01:12:09;655.10;;;596.35;;
43114;SDS011;28727;50.068;14.452;2023-07-31T01:15:04;659.08;;;600.40;;
43114;SDS011;28727;50.068;14.452;2023-07-31T01:17:43;652.08;;;593.72;;
43114;SDS011;28727;50.068;14.452;2023-07-31T01:20:23;651.75;;;593.47;;
43114;SDS011;28727;50.068;14.452;2023-07-31T01:23:05;650.60;;;592.25;;
43114;SDS011;28727;50.068;14.452;2023-07-31T01:26:17;655.65;;;596.70;;
43114;SDS011;28727;50.068;14.452;2023-07-31T01:29:03;650.15;;;591.70;;
43114;SDS011;28727;50.068;14.452;2023-07-31T01:31:42;647.65;;;589.33;;
43114;SDS011;28727;50.068;14.452;2023-07-31T01:34:19;649.40;;;591.25;;
43114;SDS011;28727;50.068;14.452;2023-07-31T01:36:53;651.97;;;593.88;;
43114;SDS011;28727;50.068;14.452;2023-07-31T01:39:27;649.65;;;591.38;;
43114;SDS011;28727;50.068;14.452;2023-07-31T01:41:59;652.22;;;593.58;;
43114;SDS011;28727;50.068;14.452;2023-07-31T01:44:33;651.13;;;592.97;;
43114;SDS011;28727;50.068;14.452;2023-07-31T01:47:09;650.22;;;592.13;;
43114;SDS011;28727;50.068;14.452;2023-07-31T01:49:41;652.40;;;594.03;;
43114;SDS011;28727;50.068;14.452;2023-07-31T01:52:13;655.33;;;596.63;;
43114;SDS011;28727;50.068;14.452;2023-07-31T01:54:44;642.97;;;585.20;;
43114;SDS011;28727;50.068;14.452;2023-07-31T01:57:17;652.15;;;593.65;;
43114;SDS011;28727;50.068;14.452;2023-07-31T01:59:49;646.97;;;588.65;;
43114;SDS011;28727;50.068;14.452;2023-07-31T02:02:22;649.08;;;591.03;;
43114;SDS011;28727;50.068;14.452;2023-07-31T02:04:55;649.53;;;591.35;;
43114;SDS011;28727;50.068;14.452;2023-07-31T02:07:30;644.67;;;586.65;;
43114;SDS011;28727;50.068;14.452;2023-07-31T02:10:01;648.65;;;590.35;;
43114;SDS011;28727;50.068;14.452;2023-07-31T02:12:33;644.30;;;585.90;;
43114;SDS011;28727;50.068;14.452;2023-07-31T02:15:06;648.95;;;590.65;;
43114;SDS011;28727;50.068;14.452;2023-07-31T02:17:38;650.42;;;592.03;;
43114;SDS011;28727;50.068;14.452;2023-07-31T02:20:10;650.80;;;592.30;;
43114;SDS011;28727;50.068;14.452;2023-07-31T02:22:42;647.80;;;588.97;;
43114;SDS011;28727;50.068;14.452;2023-07-31T02:25:14;650.08;;;591.90;;
43114;SDS011;28727;50.068;14.452;2023-07-31T02:27:46;650.33;;;591.65;;
43114;SDS011;28727;50.068;14.452;2023-07-31T02:30:19;645.15;;;586.72;;
43114;SDS011;28727;50.068;14.452;2023-07-31T02:32:51;645.00;;;587.00;;
43114;SDS011;28727;50.068;14.452;2023-07-31T02:35:23;646.83;;;588.40;;
43114;SDS011;28727;50.068;14.452;2023-07-31T02:37:55;643.90;;;585.53;;
43114;SDS011;28727;50.068;14.452;2023-07-31T02:40:26;650.03;;;591.53;;
43114;SDS011;28727;50.068;14.452;2023-07-31T02:42:58;641.80;;;583.75;;
43114;SDS011;28727;50.068;14.452;2023-07-31T02:45:31;642.70;;;584.72;;
43114;SDS011;28727;50.068;14.452;2023-07-31T02:48:04;646.30;;;587.85;;
43114;SDS011;28727;50.068;14.452;2023-07-31T02:50:36;643.15;;;585.05;;
43114;SDS011;28727;50.068;14.452;2023-07-31T02:53:08;645.88;;;587.85;;
43114;SDS011;28727;50.068;14.452;2023-07-31T02:55:40;649.20;;;591.03;;
43114;SDS011;28727;50.068;14.452;2023-07-31T02:58:12;645.45;;;587.38;;
43114;SDS011;28727;50.068;14.452;2023-07-31T03:00:44;652.90;;;594.63;;
43114;SDS011;28727;50.068;14.452;2023-07-31T03:03:16;646.10;;;587.95;;
43114;SDS011;28727;50.068;14.452;2023-07-31T03:05:51;651.60;;;593.00;;
43114;SDS011;28727;50.068;14.452;2023-07-31T03:08:23;645.50;;;587.45;;
43114;SDS011;28727;50.068;14.452;2023-07-31T03:10:54;646.25;;;588.50;;
43114;SDS011;28727;50.068;14.452;2023-07-31T03:13:28;638.50;;;580.95;;
43114;SDS011;28727;50.068;14.452;2023-07-31T03:15:59;649.83;;;591.53;;
43114;SDS011;28727;50.068;14.452;2023-07-31T03:18:31;646.22;;;588.35;;
43114;SDS011;28727;50.068;14.452;2023-07-31T03:21:03;643.60;;;585.63;;
43114;SDS011;28727;50.068;14.452;2023-07-31T03:23:39;653.10;;;594.97;;
43114;SDS011;28727;50.068;14.452;2023-07-31T03:26:11;645.92;;;587.65;;
43114;SDS011;28727;50.068;14.452;2023-07-31T03:28:43;646.75;;;588.72;;
43114;SDS011;28727;50.068;14.452;2023-07-31T03:31:16;645.65;;;587.47;;
43114;SDS011;28727;50.068;14.452;2023-07-31T03:33:48;642.08;;;584.28;;
43114;SDS011;28727;50.068;14.452;2023-07-31T03:36:20;644.47;;;586.65;;
43114;SDS011;28727;50.068;14.452;2023-07-31T03:38:53;646.55;;;588.40;;
43114;SDS011;28727;50.068;14.452;2023-07-31T03:44:00;646.47;;;588.35;;
43114;SDS011;28727;50.068;14.452;2023-07-31T03:46:31;645.75;;;587.70;;
43114;SDS011;28727;50.068;14.452;2023-07-31T03:49:05;652.80;;;594.10;;
43114;SDS011;28727;50.068;14.452;2023-07-31T03:51:36;644.10;;;585.95;;
43114;SDS011;28727;50.068;14.452;2023-07-31T03:54:08;642.83;;;585.00;;
43114;SDS011;28727;50.068;14.452;2023-07-31T03:56:40;647.45;;;588.67;;
43114;SDS011;28727;50.068;14.452;2023-07-31T03:59:13;644.50;;;586.70;;
43114;SDS011;28727;50.068;14.452;2023-07-31T04:01:47;642.85;;;584.97;;
43114;SDS011;28727;50.068;14.452;2023-07-31T04:04:19;645.33;;;587.25;;
43114;SDS011;28727;50.068;14.452;2023-07-31T04:06:51;642.67;;;584.63;;
43114;SDS011;28727;50.068;14.452;2023-07-31T04:09:23;641.83;;;584.03;;
43114;SDS011;28727;50.068;14.452;2023-07-31T04:11:54;644.53;;;586.45;;
43114;SDS011;28727;50.068;14.452;2023-07-31T04:14:29;646.85;;;588.95;;
43114;SDS011;28727;50.068;14.452;2023-07-31T04:17:01;643.70;;;585.80;;
43114;SDS011;28727;50.068;14.452;2023-07-31T04:19:33;642.25;;;584.40;;
43114;SDS011;28727;50.068;14.452;2023-07-31T04:22:05;645.10;;;587.13;;
43114;SDS011;28727;50.068;14.452;2023-07-31T04:24:36;643.83;;;585.63;;
43114;SDS011;28727;50.068;14.452;2023-07-31T04:27:08;647.15;;;588.90;;
43114;SDS011;28727;50.068;14.452;2023-07-31T04:29:40;649.03;;;590.65;;
43114;SDS011;28727;50.068;14.452;2023-07-31T04:32:13;641.83;;;584.03;;
43114;SDS011;28727;50.068;14.452;2023-07-31T04:37:19;637.55;;;579.97;;
43114;SDS011;28727;50.068;14.452;2023-07-31T04:39:53;645.33;;;587.33;;
43114;SDS011;28727;50.068;14.452;2023-07-31T04:42:25;648.92;;;590.67;;
43114;SDS011;28727;50.068;14.452;2023-07-31T04:44:57;652.22;;;593.53;;
43114;SDS011;28727;50.068;14.452;2023-07-31T04:47:29;653.92;;;595.67;;
43114;SDS011;28727;50.068;14.452;2023-07-31T04:50:01;658.67;;;599.83;;
43114;SDS011;28727;50.068;14.452;2023-07-31T04:52:32;652.70;;;594.33;;
43114;SDS011;28727;50.068;14.452;2023-07-31T04:55:04;649.60;;;591.28;;
43114;SDS011;28727;50.068;14.452;2023-07-31T04:57:36;647.72;;;589.55;;
43114;SDS011;28727;50.068;14.452;2023-07-31T05:00:08;653.55;;;595.17;;
43114;SDS011;28727;50.068;14.452;2023-07-31T05:02:40;653.53;;;594.97;;
43114;SDS011;28727;50.068;14.452;2023-07-31T05:05:12;651.63;;;593.38;;
43114;SDS011;28727;50.068;14.452;2023-07-31T05:07:44;658.42;;;599.88;;
43114;SDS011;28727;50.068;14.452;2023-07-31T05:10:16;657.65;;;599.08;;
43114;SDS011;28727;50.068;14.452;2023-07-31T05:12:50;657.92;;;598.75;;
43114;SDS011;28727;50.068;14.452;2023-07-31T05:15:23;657.72;;;598.90;;
43114;SDS011;28727;50.068;14.452;2023-07-31T05:17:55;668.42;;;609.38;;
43114;SDS011;28727;50.068;14.452;2023-07-31T05:20:27;666.15;;;607.00;;
43114;SDS011;28727;50.068;14.452;2023-07-31T05:23:00;665.28;;;606.28;;
43114;SDS011;28727;50.068;14.452;2023-07-31T05:25:32;668.67;;;609.40;;
43114;SDS011;28727;50.068;14.452;2023-07-31T05:28:04;659.90;;;601.20;;
43114;SDS011;28727;50.068;14.452;2023-07-31T05:30:37;671.13;;;611.85;;
43114;SDS011;28727;50.068;14.452;2023-07-31T05:33:10;662.55;;;603.25;;
43114;SDS011;28727;50.068;14.452;2023-07-31T05:35:45;663.63;;;604.78;;
43114;SDS011;28727;50.068;14.452;2023-07-31T05:38:17;663.67;;;604.58;;
43114;SDS011;28727;50.068;14.452;2023-07-31T05:40:49;664.53;;;605.47;;
43114;SDS011;28727;50.068;14.452;2023-07-31T05:43:21;671.15;;;611.53;;
43114;SDS011;28727;50.068;14.452;2023-07-31T05:45:53;667.72;;;608.55;;
43114;SDS011;28727;50.068;14.452;2023-07-31T05:48:25;666.45;;;606.92;;
43114;SDS011;28727;50.068;14.452;2023-07-31T05:50:57;669.10;;;609.35;;
43114;SDS011;28727;50.068;14.452;2023-07-31T05:53:28;664.25;;;604.92;;
43114;SDS011;28727;50.068;14.452;2023-07-31T05:56:01;662.65;;;603.30;;
43114;SDS011;28727;50.068;14.452;2023-07-31T05:58:36;668.13;;;608.80;;
43114;SDS011;28727;50.068;14.452;2023-07-31T06:01:07;666.33;;;606.78;;
43114;SDS011;28727;50.068;14.452;2023-07-31T06:03:40;676.25;;;616.08;;
43114;SDS011;28727;50.068;14.452;2023-07-31T06:06:12;668.08;;;608.63;;
43114;SDS011;28727;50.068;14.452;2023-07-31T06:08:45;673.50;;;613.85;;
43114;SDS011;28727;50.068;14.452;2023-07-31T06:11:17;671.50;;;611.30;;
43114;SDS011;28727;50.068;14.452;2023-07-31T06:13:50;672.92;;;613.15;;
43114;SDS011;28727;50.068;14.452;2023-07-31T06:16:26;676.25;;;616.28;;
43114;SDS011;28727;50.068;14.452;2023-07-31T06:21:31;667.65;;;607.95;;
43114;SDS011;28727;50.068;14.452;2023-07-31T06:24:03;674.92;;;614.97;;
43114;SDS011;28727;50.068;14.452;2023-07-31T06:26:41;679.53;;;619.08;;
43114;SDS011;28727;50.068;14.452;2023-07-31T06:29:14;676.30;;;616.28;;
43114;SDS011;28727;50.068;14.452;2023-07-31T06:31:45;674.85;;;615.08;;
43114;SDS011;28727;50.068;14.452;2023-07-31T06:34:19;684.58;;;624.00;;
43114;SDS011;28727;50.068;14.452;2023-07-31T06:36:50;677.45;;;617.63;;
43114;SDS011;28727;50.068;14.452;2023-07-31T06:39:23;681.30;;;621.15;;
43114;SDS011;28727;50.068;14.452;2023-07-31T06:41:59;681.78;;;621.28;;
43114;SDS011;28727;50.068;14.452;2023-07-31T06:44:31;687.92;;;627.17;;
43114;SDS011;28727;50.068;14.452;2023-07-31T06:47:04;688.35;;;627.60;;
43114;SDS011;28727;50.068;14.452;2023-07-31T06:49:36;692.90;;;632.38;;
43114;SDS011;28727;50.068;14.452;2023-07-31T06:52:08;688.22;;;627.75;;
43114;SDS011;28727;50.068;14.452;2023-07-31T06:57:14;690.20;;;629.05;;
43114;SDS011;28727;50.068;14.452;2023-07-31T06:59:48;688.72;;;628.08;;
43114;SDS011;28727;50.068;14.452;2023-07-31T07:02:23;697.70;;;636.72;;
43114;SDS011;28727;50.068;14.452;2023-07-31T07:04:55;697.88;;;636.65;;
43114;SDS011;28727;50.068;14.452;2023-07-31T07:07:27;697.60;;;636.50;;
43114;SDS011;28727;50.068;14.452;2023-07-31T07:09:58;699.92;;;638.55;;
43114;SDS011;28727;50.068;14.452;2023-07-31T07:12:34;712.30;;;650.70;;
43114;SDS011;28727;50.068;14.452;2023-07-31T07:15:08;706.90;;;645.28;;
43114;SDS011;28727;50.068;14.452;2023-07-31T07:17:40;706.85;;;645.45;;
43114;SDS011;28727;50.068;14.452;2023-07-31T07:20:12;706.42;;;645.15;;
43114;SDS011;28727;50.068;14.452;2023-07-31T07:22:47;709.08;;;647.47;;
43114;SDS011;28727;50.068;14.452;2023-07-31T07:25:19;706.95;;;645.33;;
43114;SDS011;28727;50.068;14.452;2023-07-31T07:27:50;705.13;;;643.75;;
43114;SDS011;28727;50.068;14.452;2023-07-31T07:30:25;718.72;;;656.50;;
43114;SDS011;28727;50.068;14.452;2023-07-31T07:32:57;715.63;;;653.40;;
43114;SDS011;28727;50.068;14.452;2023-07-31T07:35:29;715.67;;;654.05;;
43114;SDS011;28727;50.068;14.452;2023-07-31T07:38:02;722.05;;;659.92;;
43114;SDS011;28727;50.068;14.452;2023-07-31T07:40:38;722.28;;;660.22;;
43114;SDS011;28727;50.068;14.452;2023-07-31T07:43:12;723.42;;;661.42;;
43114;SDS011;28727;50.068;14.452;2023-07-31T07:45:44;717.90;;;656.05;;
43114;SDS011;28727;50.068;14.452;2023-07-31T07:48:16;723.53;;;661.40;;
43114;SDS011;28727;50.068;14.452;2023-07-31T07:50:48;720.90;;;658.50;;
43114;SDS011;28727;50.068;14.452;2023-07-31T07:53:23;732.67;;;670.05;;
43114;SDS011;28727;50.068;14.452;2023-07-31T07:55:55;716.85;;;655.03;;
43114;SDS011;28727;50.068;14.452;2023-07-31T07:58:26;724.78;;;662.67;;
43114;SDS011;28727;50.068;14.452;2023-07-31T08:00:58;718.55;;;656.63;;
43114;SDS011;28727;50.068;14.452;2023-07-31T08:03:30;723.88;;;661.70;;
43114;SDS011;28727;50.068;14.452;2023-07-31T08:06:02;719.10;;;657.10;;
43114;SDS011;28727;50.068;14.452;2023-07-31T08:08:37;722.40;;;660.53;;
43114;SDS011;28727;50.068;14.452;2023-07-31T08:11:09;715.75;;;654.08;;
43114;SDS011;28727;50.068;14.452;2023-07-31T08:13:43;723.67;;;661.47;;
43114;SDS011;28727;50.068;14.452;2023-07-31T08:16:15;726.25;;;664.05;;
43114;SDS011;28727;50.068;14.452;2023-07-31T08:18:47;724.03;;;662.00;;
43114;SDS011;28727;50.068;14.452;2023-07-31T08:21:20;725.80;;;663.53;;
43114;SDS011;28727;50.068;14.452;2023-07-31T08:23:53;722.95;;;660.72;;
43114;SDS011;28727;50.068;14.452;2023-07-31T08:26:25;732.72;;;670.10;;
43114;SDS011;28727;50.068;14.452;2023-07-31T08:28:57;728.40;;;665.95;;
43114;SDS011;28727;50.068;14.452;2023-07-31T08:31:29;731.83;;;669.22;;
43114;SDS011;28727;50.068;14.452;2023-07-31T08:34:01;737.88;;;674.53;;
43114;SDS011;28727;50.068;14.452;2023-07-31T08:36:33;730.20;;;667.47;;
43114;SDS011;28727;50.068;14.452;2023-07-31T08:39:05;725.95;;;663.75;;
43114;SDS011;28727;50.068;14.452;2023-07-31T08:41:38;731.83;;;669.13;;
43114;SDS011;28727;50.068;14.452;2023-07-31T08:44:15;734.22;;;671.65;;
43114;SDS011;28727;50.068;14.452;2023-07-31T08:46:49;729.15;;;666.70;;
43114;SDS011;28727;50.068;14.452;2023-07-31T08:49:21;741.15;;;678.47;;
43114;SDS011;28727;50.068;14.452;2023-07-31T08:51:54;752.77;;;688.67;;
43114;SDS011;28727;50.068;14.452;2023-07-31T08:54:29;739.92;;;676.97;;
43114;SDS011;28727;50.068;14.452;2023-07-31T08:59:36;729.90;;;667.08;;
43114;SDS011;28727;50.068;14.452;2023-07-31T09:02:10;724.15;;;662.08;;
43114;SDS011;28727;50.068;14.452;2023-07-31T09:04:44;731.35;;;668.85;;
43114;SDS011;28727;50.068;14.452;2023-07-31T09:07:19;728.35;;;666.08;;
43114;SDS011;28727;50.068;14.452;2023-07-31T09:09:55;734.17;;;671.85;;
43114;SDS011;28727;50.068;14.452;2023-07-31T09:12:27;735.28;;;672.85;;
43114;SDS011;28727;50.068;14.452;2023-07-31T09:14:59;738.15;;;675.60;;
43114;SDS011;28727;50.068;14.452;2023-07-31T09:17:33;730.83;;;668.67;;
43114;SDS011;28727;50.068;14.452;2023-07-31T09:20:18;737.38;;;674.63;;
43114;SDS011;28727;50.068;14.452;2023-07-31T09:22:51;722.30;;;660.50;;
43114;SDS011;28727;50.068;14.452;2023-07-31T09:25:24;735.83;;;673.35;;
43114;SDS011;28727;50.068;14.452;2023-07-31T09:28:00;737.67;;;675.17;;
43114;SDS011;28727;50.068;14.452;2023-07-31T09:30:47;733.40;;;670.58;;
43114;SDS011;28727;50.068;14.452;2023-07-31T09:33:23;733.97;;;671.47;;
43114;SDS011;28727;50.068;14.452;2023-07-31T09:35:54;731.97;;;669.58;;
43114;SDS011;28727;50.068;14.452;2023-07-31T09:38:26;734.80;;;672.55;;
43114;SDS011;28727;50.068;14.452;2023-07-31T09:41:01;736.65;;;674.00;;
43114;SDS011;28727;50.068;14.452;2023-07-31T09:43:33;739.00;;;676.67;;
43114;SDS011;28727;50.068;14.452;2023-07-31T09:46:05;729.00;;;666.85;;
43114;SDS011;28727;50.068;14.452;2023-07-31T09:48:44;739.90;;;677.05;;
43114;SDS011;28727;50.068;14.452;2023-07-31T09:51:17;732.92;;;670.38;;
43114;SDS011;28727;50.068;14.452;2023-07-31T09:53:57;735.50;;;673.03;;
43114;SDS011;28727;50.068;14.452;2023-07-31T09:56:29;741.20;;;678.28;;
43114;SDS011;28727;50.068;14.452;2023-07-31T09:59:03;742.88;;;680.00;;
43114;SDS011;28727;50.068;14.452;2023-07-31T10:01:42;741.75;;;678.97;;
43114;SDS011;28727;50.068;14.452;2023-07-31T10:04:15;739.28;;;676.72;;
43114;SDS011;28727;50.068;14.452;2023-07-31T10:06:52;743.33;;;680.45;;
43114;SDS011;28727;50.068;14.452;2023-07-31T10:09:25;746.67;;;683.28;;
43114;SDS011;28727;50.068;14.452;2023-07-31T10:11:59;745.20;;;681.80;;
43114;SDS011;28727;50.068;14.452;2023-07-31T10:14:32;750.72;;;687.45;;
43114;SDS011;28727;50.068;14.452;2023-07-31T10:17:05;751.95;;;688.47;;
43114;SDS011;28727;50.068;14.452;2023-07-31T10:19:38;760.03;;;696.13;;
43114;SDS011;28727;50.068;14.452;2023-07-31T10:22:11;762.28;;;698.50;;
43114;SDS011;28727;50.068;14.452;2023-07-31T10:24:45;758.07;;;694.00;;
43114;SDS011;28727;50.068;14.452;2023-07-31T10:27:17;767.10;;;702.78;;
43114;SDS011;28727;50.068;14.452;2023-07-31T10:29:48;765.30;;;701.30;;
43114;SDS011;28727;50.068;14.452;2023-07-31T10:32:22;763.97;;;700.22;;
43114;SDS011;28727;50.068;14.452;2023-07-31T10:34:55;762.30;;;698.10;;
43114;SDS011;28727;50.068;14.452;2023-07-31T10:37:41;770.75;;;706.25;;
43114;SDS011;28727;50.068;14.452;2023-07-31T10:40:26;765.08;;;701.30;;
43114;SDS011;28727;50.068;14.452;2023-07-31T10:42:58;771.13;;;706.72;;
43114;SDS011;28727;50.068;14.452;2023-07-31T10:45:42;771.15;;;706.80;;
43114;SDS011;28727;50.068;14.452;2023-07-31T10:48:15;773.60;;;709.38;;
43114;SDS011;28727;50.068;14.452;2023-07-31T10:50:48;767.67;;;703.70;;
43114;SDS011;28727;50.068;14.452;2023-07-31T10:53:24;772.15;;;707.72;;
43114;SDS011;28727;50.068;14.452;2023-07-31T10:55:57;770.53;;;706.33;;
43114;SDS011;28727;50.068;14.452;2023-07-31T10:58:34;770.40;;;706.30;;
43114;SDS011;28727;50.068;14.452;2023-07-31T11:01:11;772.30;;;707.97;;
43114;SDS011;28727;50.068;14.452;2023-07-31T11:03:46;779.53;;;714.72;;
43114;SDS011;28727;50.068;14.452;2023-07-31T11:06:20;775.78;;;711.25;;
43114;SDS011;28727;50.068;14.452;2023-07-31T11:09:00;773.58;;;709.38;;
43114;SDS011;28727;50.068;14.452;2023-07-31T11:11:37;773.13;;;709.00;;
43114;SDS011;28727;50.068;14.452;2023-07-31T11:14:09;778.50;;;714.10;;
43114;SDS011;28727;50.068;14.452;2023-07-31T11:16:41;784.67;;;720.08;;
43114;SDS011;28727;50.068;14.452;2023-07-31T11:19:14;779.40;;;714.92;;
43114;SDS011;28727;50.068;14.452;2023-07-31T11:21:45;780.35;;;715.92;;
43114;SDS011;28727;50.068;14.452;2023-07-31T11:24:17;785.70;;;720.78;;
43114;SDS011;28727;50.068;14.452;2023-07-31T11:26:52;788.47;;;723.45;;
43114;SDS011;28727;50.068;14.452;2023-07-31T11:29:26;777.90;;;713.42;;
43114;SDS011;28727;50.068;14.452;2023-07-31T11:31:59;775.85;;;711.78;;
43114;SDS011;28727;50.068;14.452;2023-07-31T11:34:31;783.45;;;718.35;;
43114;SDS011;28727;50.068;14.452;2023-07-31T11:37:03;779.03;;;714.78;;
43114;SDS011;28727;50.068;14.452;2023-07-31T11:39:35;783.83;;;719.28;;
43114;SDS011;28727;50.068;14.452;2023-07-31T11:42:11;777.20;;;712.85;;
43114;SDS011;28727;50.068;14.452;2023-07-31T11:44:47;780.50;;;715.88;;
43114;SDS011;28727;50.068;14.452;2023-07-31T11:47:20;778.70;;;714.20;;
43114;SDS011;28727;50.068;14.452;2023-07-31T11:49:52;785.00;;;720.42;;
43114;SDS011;28727;50.068;14.452;2023-07-31T11:52:24;779.28;;;714.75;;
43114;SDS011;28727;50.068;14.452;2023-07-31T11:54:56;773.17;;;708.88;;
43114;SDS011;28727;50.068;14.452;2023-07-31T11:57:30;778.03;;;713.45;;
43114;SDS011;28727;50.068;14.452;2023-07-31T12:00:02;775.42;;;711.15;;
43114;SDS011;28727;50.068;14.452;2023-07-31T12:02:37;785.10;;;720.55;;
43114;SDS011;28727;50.068;14.452;2023-07-31T12:07:46;775.25;;;710.95;;
43114;SDS011;28727;50.068;14.452;2023-07-31T12:10:27;782.22;;;717.40;;
43114;SDS011;28727;50.068;14.452;2023-07-31T12:13:08;777.92;;;713.72;;
43114;SDS011;28727;50.068;14.452;2023-07-31T12:15:47;781.00;;;716.55;;
43114;SDS011;28727;50.068;14.452;2023-07-31T12:18:19;784.78;;;720.10;;
43114;SDS011;28727;50.068;14.452;2023-07-31T12:20:58;783.67;;;719.20;;
43114;SDS011;28727;50.068;14.452;2023-07-31T12:23:32;779.78;;;715.55;;
43114;SDS011;28727;50.068;14.452;2023-07-31T12:26:11;790.08;;;725.13;;
43114;SDS011;28727;50.068;14.452;2023-07-31T12:28:45;785.42;;;720.85;;
43114;SDS011;28727;50.068;14.452;2023-07-31T12:31:20;789.50;;;724.38;;
43114;SDS011;28727;50.068;14.452;2023-07-31T12:33:57;789.95;;;724.95;;
43114;SDS011;28727;50.068;14.452;2023-07-31T12:36:31;788.95;;;724.17;;
43114;SDS011;28727;50.068;14.452;2023-07-31T12:39:07;793.30;;;728.42;;
43114;SDS011;28727;50.068;14.452;2023-07-31T12:41:38;794.05;;;728.88;;
43114;SDS011;28727;50.068;14.452;2023-07-31T12:44:10;792.15;;;727.22;;
43114;SDS011;28727;50.068;14.452;2023-07-31T12:46:42;793.10;;;727.78;;
43114;SDS011;28727;50.068;14.452;2023-07-31T12:49:17;788.58;;;723.90;;
43114;SDS011;28727;50.068;14.452;2023-07-31T12:51:49;788.72;;;723.97;;
43114;SDS011;28727;50.068;14.452;2023-07-31T12:54:21;798.75;;;733.67;;
43114;SDS011;28727;50.068;14.452;2023-07-31T12:56:52;790.33;;;725.75;;
43114;SDS011;28727;50.068;14.452;2023-07-31T12:59:28;791.50;;;726.50;;
43114;SDS011;28727;50.068;14.452;2023-07-31T13:02:03;794.40;;;729.33;;
43114;SDS011;28727;50.068;14.452;2023-07-31T13:04:35;795.92;;;730.90;;
43114;SDS011;28727;50.068;14.452;2023-07-31T13:07:07;798.00;;;732.60;;
43114;SDS011;28727;50.068;14.452;2023-07-31T13:09:39;792.92;;;727.80;;
43114;SDS011;28727;50.068;14.452;2023-07-31T13:12:11;794.45;;;729.47;;
43114;SDS011;28727;50.068;14.452;2023-07-31T13:14:42;798.40;;;733.05;;
43114;SDS011;28727;50.068;14.452;2023-07-31T13:17:14;798.95;;;733.53;;
43114;SDS011;28727;50.068;14.452;2023-07-31T13:19:46;801.10;;;735.92;;
43114;SDS011;28727;50.068;14.452;2023-07-31T13:22:18;798.05;;;732.83;;
43114;SDS011;28727;50.068;14.452;2023-07-31T13:24:50;799.08;;;733.85;;
43114;SDS011;28727;50.068;14.452;2023-07-31T13:27:22;793.35;;;728.28;;
43114;SDS011;28727;50.068;14.452;2023-07-31T13:29:55;795.80;;;730.63;;
43114;SDS011;28727;50.068;14.452;2023-07-31T13:32:26;794.40;;;729.65;;
43114;SDS011;28727;50.068;14.452;2023-07-31T13:34:58;793.55;;;728.65;;
43114;SDS011;28727;50.068;14.452;2023-07-31T13:37:30;793.75;;;728.35;;
43114;SDS011;28727;50.068;14.452;2023-07-31T13:40:03;799.65;;;734.20;;
43114;SDS011;28727;50.068;14.452;2023-07-31T13:42:39;797.25;;;732.25;;
43114;SDS011;28727;50.068;14.452;2023-07-31T13:45:11;795.13;;;729.83;;
43114;SDS011;28727;50.068;14.452;2023-07-31T13:47:43;793.88;;;728.90;;
43114;SDS011;28727;50.068;14.452;2023-07-31T13:50:15;798.33;;;733.22;;
43114;SDS011;28727;50.068;14.452;2023-07-31T13:52:48;794.10;;;728.73;;
43114;SDS011;28727;50.068;14.452;2023-07-31T13:55:20;797.60;;;732.67;;
43114;SDS011;28727;50.068;14.452;2023-07-31T13:57:52;795.88;;;731.00;;
43114;SDS011;28727;50.068;14.452;2023-07-31T14:00:27;796.03;;;731.00;;
43114;SDS011;28727;50.068;14.452;2023-07-31T14:03:00;794.95;;;730.22;;
43114;SDS011;28727;50.068;14.452;2023-07-31T14:05:32;792.83;;;727.95;;
43114;SDS011;28727;50.068;14.452;2023-07-31T14:08:04;792.65;;;727.80;;
43114;SDS011;28727;50.068;14.452;2023-07-31T14:10:36;793.88;;;728.88;;
43114;SDS011;28727;50.068;14.452;2023-07-31T14:13:07;790.67;;;725.78;;
43114;SDS011;28727;50.068;14.452;2023-07-31T14:15:43;792.72;;;727.75;;
43114;SDS011;28727;50.068;14.452;2023-07-31T14:18:15;795.03;;;730.00;;
43114;SDS011;28727;50.068;14.452;2023-07-31T14:20:56;800.50;;;735.25;;
43114;SDS011;28727;50.068;14.452;2023-07-31T14:23:34;796.30;;;731.28;;
43114;SDS011;28727;50.068;14.452;2023-07-31T14:26:06;804.38;;;738.80;;
43114;SDS011;28727;50.068;14.452;2023-07-31T14:28:38;797.65;;;732.45;;
43114;SDS011;28727;50.068;14.452;2023-07-31T14:31:10;797.40;;;732.15;;
43114;SDS011;28727;50.068;14.452;2023-07-31T14:33:45;800.97;;;735.47;;
43114;SDS011;28727;50.068;14.452;2023-07-31T14:36:16;800.70;;;735.40;;